sensor_id;sensor_type;location;lat;lon;timestamp;temperature;humidity
5556;DHT22;2801;50.972;7.856;2024-03-22T00:02:07;6.70;99.90
5556;DHT22;2801;50.972;7.856;2024-03-22T00:04:38;6.70;99.90
5556;DHT22;2801;50.972;7.856;2024-03-22T00:07:04;6.70;99.90
5556;DHT22;2801;50.972;7.856;2024-03-22T00:09:30;6.70;99.90
5556;DHT22;2801;50.972;7.856;2024-03-22T00:11:57;6.70;99.90
5556;DHT22;2801;50.972;7.856;2024-03-22T00:14:23;6.70;99.90
5556;DHT22;2801;50.972;7.856;2024-03-22T00:16:50;6.80;99.90
5556;DHT22;2801;50.972;7.856;2024-03-22T00:19:16;6.80;99.90
5556;DHT22;2801;50.972;7.856;2024-03-22T00:21:42;6.90;99.90
5556;DHT22;2801;50.972;7.856;2024-03-22T00:24:09;6.90;99.90
5556;DHT22;2801;50.972;7.856;2024-03-22T00:26:35;7.00;99.90
5556;DHT22;2801;50.972;7.856;2024-03-22T00:29:01;6.90;99.90
5556;DHT22;2801;50.972;7.856;2024-03-22T00:31:28;6.90;99.90
5556;DHT22;2801;50.972;7.856;2024-03-22T00:33:54;7.00;99.90
5556;DHT22;2801;50.972;7.856;2024-03-22T00:36:20;7.00;99.90
5556;DHT22;2801;50.972;7.856;2024-03-22T00:38:47;7.00;99.90
5556;DHT22;2801;50.972;7.856;2024-03-22T00:41:13;7.00;99.90
5556;DHT22;2801;50.972;7.856;2024-03-22T00:43:39;7.10;99.90
5556;DHT22;2801;50.972;7.856;2024-03-22T00:46:05;7.10;99.90
5556;DHT22;2801;50.972;7.856;2024-03-22T00:48:32;7.10;99.90
5556;DHT22;2801;50.972;7.856;2024-03-22T00:50:59;7.20;99.90
5556;DHT22;2801;50.972;7.856;2024-03-22T00:53:25;7.00;99.90
5556;DHT22;2801;50.972;7.856;2024-03-22T00:55:51;7.00;99.90
5556;DHT22;2801;50.972;7.856;2024-03-22T00:58:18;7.10;99.90
5556;DHT22;2801;50.972;7.856;2024-03-22T01:00:45;7.10;99.90
5556;DHT22;2801;50.972;7.856;2024-03-22T01:03:12;7.10;99.90
5556;DHT22;2801;50.972;7.856;2024-03-22T01:05:38;7.00;99.90
5556;DHT22;2801;50.972;7.856;2024-03-22T01:08:06;7.00;99.90
5556;DHT22;2801;50.972;7.856;2024-03-22T01:10:33;7.20;99.90
5556;DHT22;2801;50.972;7.856;2024-03-22T01:13:00;7.10;99.90
5556;DHT22;2801;50.972;7.856;2024-03-22T01:15:26;7.20;99.90
5556;DHT22;2801;50.972;7.856;2024-03-22T01:17:53;7.00;99.90
5556;DHT22;2801;50.972;7.856;2024-03-22T01:20:19;7.00;99.90
5556;DHT22;2801;50.972;7.856;2024-03-22T01:22:46;7.00;99.90
5556;DHT22;2801;50.972;7.856;2024-03-22T01:25:12;7.00;99.90
5556;DHT22;2801;50.972;7.856;2024-03-22T01:27:38;7.00;99.90
5556;DHT22;2801;50.972;7.856;2024-03-22T01:30:05;6.90;99.90
5556;DHT22;2801;50.972;7.856;2024-03-22T01:32:31;6.80;99.90
5556;DHT22;2801;50.972;7.856;2024-03-22T01:34:58;6.80;99.90
5556;DHT22;2801;50.972;7.856;2024-03-22T01:37:24;6.80;99.90
5556;DHT22;2801;50.972;7.856;2024-03-22T01:39:50;6.80;99.90
5556;DHT22;2801;50.972;7.856;2024-03-22T01:42:16;6.70;99.90
5556;DHT22;2801;50.972;7.856;2024-03-22T01:44:42;6.80;99.90
5556;DHT22;2801;50.972;7.856;2024-03-22T01:47:08;6.80;99.90
5556;DHT22;2801;50.972;7.856;2024-03-22T01:49:35;6.80;99.90
5556;DHT22;2801;50.972;7.856;2024-03-22T01:52:02;6.70;99.90
5556;DHT22;2801;50.972;7.856;2024-03-22T01:54:29;6.80;99.90
5556;DHT22;2801;50.972;7.856;2024-03-22T01:56:56;6.90;99.90
5556;DHT22;2801;50.972;7.856;2024-03-22T01:59:23;6.80;99.90
5556;DHT22;2801;50.972;7.856;2024-03-22T02:01:49;6.80;99.90
5556;DHT22;2801;50.972;7.856;2024-03-22T02:04:16;6.80;99.90
5556;DHT22;2801;50.972;7.856;2024-03-22T02:06:43;6.90;99.90
5556;DHT22;2801;50.972;7.856;2024-03-22T02:09:09;6.90;99.90
5556;DHT22;2801;50.972;7.856;2024-03-22T02:11:36;7.00;99.90
5556;DHT22;2801;50.972;7.856;2024-03-22T02:14:05;7.00;99.90
5556;DHT22;2801;50.972;7.856;2024-03-22T02:16:32;7.00;99.90
5556;DHT22;2801;50.972;7.856;2024-03-22T02:18:59;7.00;99.90
5556;DHT22;2801;50.972;7.856;2024-03-22T02:21:25;7.00;99.90
5556;DHT22;2801;50.972;7.856;2024-03-22T02:23:51;7.00;99.90
5556;DHT22;2801;50.972;7.856;2024-03-22T02:26:17;7.00;99.90
5556;DHT22;2801;50.972;7.856;2024-03-22T02:28:43;7.00;99.90
5556;DHT22;2801;50.972;7.856;2024-03-22T02:31:09;7.00;99.90
5556;DHT22;2801;50.972;7.856;2024-03-22T02:33:35;7.00;99.90
5556;DHT22;2801;50.972;7.856;2024-03-22T02:36:02;7.00;99.90
5556;DHT22;2801;50.972;7.856;2024-03-22T02:38:28;7.10;99.90
5556;DHT22;2801;50.972;7.856;2024-03-22T02:40:54;7.10;99.90
5556;DHT22;2801;50.972;7.856;2024-03-22T02:43:20;7.10;99.90
5556;DHT22;2801;50.972;7.856;2024-03-22T02:45:47;7.20;99.90
5556;DHT22;2801;50.972;7.856;2024-03-22T02:48:14;7.20;99.90
5556;DHT22;2801;50.972;7.856;2024-03-22T02:50:40;7.20;99.90
5556;DHT22;2801;50.972;7.856;2024-03-22T02:53:08;7.30;99.90
5556;DHT22;2801;50.972;7.856;2024-03-22T02:55:40;7.20;99.90
5556;DHT22;2801;50.972;7.856;2024-03-22T02:58:07;7.30;99.90
5556;DHT22;2801;50.972;7.856;2024-03-22T03:00:37;7.50;99.90
5556;DHT22;2801;50.972;7.856;2024-03-22T03:03:05;7.40;99.90
5556;DHT22;2801;50.972;7.856;2024-03-22T03:05:32;7.50;99.90
5556;DHT22;2801;50.972;7.856;2024-03-22T03:07:58;7.50;99.90
5556;DHT22;2801;50.972;7.856;2024-03-22T03:10:25;7.50;99.90
5556;DHT22;2801;50.972;7.856;2024-03-22T03:12:54;7.50;99.90
5556;DHT22;2801;50.972;7.856;2024-03-22T03:15:20;7.60;99.90
5556;DHT22;2801;50.972;7.856;2024-03-22T03:17:47;7.60;99.90
5556;DHT22;2801;50.972;7.856;2024-03-22T03:20:13;7.60;99.90
5556;DHT22;2801;50.972;7.856;2024-03-22T03:22:40;7.60;99.90
5556;DHT22;2801;50.972;7.856;2024-03-22T03:25:06;7.60;99.90
5556;DHT22;2801;50.972;7.856;2024-03-22T03:27:34;7.60;99.90
5556;DHT22;2801;50.972;7.856;2024-03-22T03:30:00;7.60;99.90
5556;DHT22;2801;50.972;7.856;2024-03-22T03:32:27;7.60;99.90
5556;DHT22;2801;50.972;7.856;2024-03-22T03:34:54;7.60;99.90
5556;DHT22;2801;50.972;7.856;2024-03-22T03:37:20;7.70;99.90
5556;DHT22;2801;50.972;7.856;2024-03-22T03:39:46;7.60;99.90
5556;DHT22;2801;50.972;7.856;2024-03-22T03:42:13;7.60;99.90
5556;DHT22;2801;50.972;7.856;2024-03-22T03:44:39;7.70;99.90
5556;DHT22;2801;50.972;7.856;2024-03-22T03:47:07;7.70;99.90
5556;DHT22;2801;50.972;7.856;2024-03-22T03:49:34;7.70;99.90
5556;DHT22;2801;50.972;7.856;2024-03-22T03:52:00;7.80;99.90
5556;DHT22;2801;50.972;7.856;2024-03-22T03:54:26;7.80;99.90
5556;DHT22;2801;50.972;7.856;2024-03-22T03:56:52;7.80;99.90
5556;DHT22;2801;50.972;7.856;2024-03-22T03:59:18;7.90;99.90
5556;DHT22;2801;50.972;7.856;2024-03-22T04:01:45;7.80;99.90
5556;DHT22;2801;50.972;7.856;2024-03-22T04:04:11;7.90;99.90
5556;DHT22;2801;50.972;7.856;2024-03-22T04:06:37;7.90;99.90
5556;DHT22;2801;50.972;7.856;2024-03-22T04:09:03;8.00;99.90
5556;DHT22;2801;50.972;7.856;2024-03-22T04:11:31;8.00;99.90
5556;DHT22;2801;50.972;7.856;2024-03-22T04:13:57;8.00;99.90
5556;DHT22;2801;50.972;7.856;2024-03-22T04:16:23;8.10;99.90
5556;DHT22;2801;50.972;7.856;2024-03-22T04:18:49;8.10;99.90
5556;DHT22;2801;50.972;7.856;2024-03-22T04:21:16;8.10;99.90
5556;DHT22;2801;50.972;7.856;2024-03-22T04:23:43;8.10;99.90
5556;DHT22;2801;50.972;7.856;2024-03-22T04:26:09;8.10;99.90
5556;DHT22;2801;50.972;7.856;2024-03-22T04:28:35;8.10;99.90
5556;DHT22;2801;50.972;7.856;2024-03-22T04:31:06;8.20;99.90
5556;DHT22;2801;50.972;7.856;2024-03-22T04:33:37;8.20;99.90
5556;DHT22;2801;50.972;7.856;2024-03-22T04:36:04;8.20;99.90
5556;DHT22;2801;50.972;7.856;2024-03-22T04:38:31;8.20;99.90
5556;DHT22;2801;50.972;7.856;2024-03-22T04:40:57;8.20;99.90
5556;DHT22;2801;50.972;7.856;2024-03-22T04:43:24;8.20;99.90
5556;DHT22;2801;50.972;7.856;2024-03-22T04:45:51;8.10;99.90
5556;DHT22;2801;50.972;7.856;2024-03-22T04:48:21;8.10;99.90
5556;DHT22;2801;50.972;7.856;2024-03-22T04:50:49;8.10;99.90
5556;DHT22;2801;50.972;7.856;2024-03-22T04:53:18;8.10;99.90
5556;DHT22;2801;50.972;7.856;2024-03-22T04:55:46;8.00;99.90
5556;DHT22;2801;50.972;7.856;2024-03-22T04:58:17;8.00;99.90
5556;DHT22;2801;50.972;7.856;2024-03-22T05:00:46;7.90;99.90
5556;DHT22;2801;50.972;7.856;2024-03-22T05:03:14;7.80;99.90
5556;DHT22;2801;50.972;7.856;2024-03-22T05:05:41;7.90;99.90
5556;DHT22;2801;50.972;7.856;2024-03-22T05:08:08;8.00;99.90
5556;DHT22;2801;50.972;7.856;2024-03-22T05:10:35;7.90;99.90
5556;DHT22;2801;50.972;7.856;2024-03-22T05:13:01;7.90;99.90
5556;DHT22;2801;50.972;7.856;2024-03-22T05:15:28;7.90;99.90
5556;DHT22;2801;50.972;7.856;2024-03-22T05:17:57;7.90;99.90
5556;DHT22;2801;50.972;7.856;2024-03-22T05:20:24;7.90;99.90
5556;DHT22;2801;50.972;7.856;2024-03-22T05:22:50;7.90;99.90
5556;DHT22;2801;50.972;7.856;2024-03-22T05:25:17;7.90;99.90
5556;DHT22;2801;50.972;7.856;2024-03-22T05:27:44;7.90;99.90
5556;DHT22;2801;50.972;7.856;2024-03-22T05:30:11;7.90;99.90
5556;DHT22;2801;50.972;7.856;2024-03-22T05:32:39;7.80;99.90
5556;DHT22;2801;50.972;7.856;2024-03-22T05:35:06;7.90;99.90
5556;DHT22;2801;50.972;7.856;2024-03-22T05:37:33;7.90;99.90
5556;DHT22;2801;50.972;7.856;2024-03-22T05:40:01;7.90;99.90
5556;DHT22;2801;50.972;7.856;2024-03-22T05:42:29;7.90;99.90
5556;DHT22;2801;50.972;7.856;2024-03-22T05:44:56;7.90;99.90
5556;DHT22;2801;50.972;7.856;2024-03-22T05:47:22;7.90;99.90
5556;DHT22;2801;50.972;7.856;2024-03-22T05:49:48;7.80;99.90
5556;DHT22;2801;50.972;7.856;2024-03-22T05:52:14;7.90;99.90
5556;DHT22;2801;50.972;7.856;2024-03-22T05:54:40;7.80;99.90
5556;DHT22;2801;50.972;7.856;2024-03-22T05:57:07;7.80;99.90
5556;DHT22;2801;50.972;7.856;2024-03-22T05:59:33;7.90;99.90
5556;DHT22;2801;50.972;7.856;2024-03-22T06:02:00;8.00;99.90
5556;DHT22;2801;50.972;7.856;2024-03-22T06:04:26;8.00;99.90
5556;DHT22;2801;50.972;7.856;2024-03-22T06:06:52;8.10;99.90
5556;DHT22;2801;50.972;7.856;2024-03-22T06:09:18;8.10;99.90
5556;DHT22;2801;50.972;7.856;2024-03-22T06:11:52;8.30;99.90
5556;DHT22;2801;50.972;7.856;2024-03-22T06:14:18;8.20;99.90
5556;DHT22;2801;50.972;7.856;2024-03-22T06:16:45;8.20;99.90
5556;DHT22;2801;50.972;7.856;2024-03-22T06:19:14;8.50;99.90
5556;DHT22;2801;50.972;7.856;2024-03-22T06:21:40;8.40;99.90
5556;DHT22;2801;50.972;7.856;2024-03-22T06:24:06;8.50;99.90
5556;DHT22;2801;50.972;7.856;2024-03-22T06:26:32;8.50;99.90
5556;DHT22;2801;50.972;7.856;2024-03-22T06:28:59;8.60;99.90
5556;DHT22;2801;50.972;7.856;2024-03-22T06:31:25;8.70;99.90
5556;DHT22;2801;50.972;7.856;2024-03-22T06:33:51;8.70;99.90
5556;DHT22;2801;50.972;7.856;2024-03-22T06:36:18;8.80;99.90
5556;DHT22;2801;50.972;7.856;2024-03-22T06:38:44;8.90;99.90
5556;DHT22;2801;50.972;7.856;2024-03-22T06:41:10;8.90;99.90
5556;DHT22;2801;50.972;7.856;2024-03-22T06:43:38;8.90;99.90
5556;DHT22;2801;50.972;7.856;2024-03-22T06:46:04;9.00;99.90
5556;DHT22;2801;50.972;7.856;2024-03-22T06:48:30;9.10;99.90
5556;DHT22;2801;50.972;7.856;2024-03-22T06:50:56;9.10;99.90
5556;DHT22;2801;50.972;7.856;2024-03-22T06:53:22;9.30;99.90
5556;DHT22;2801;50.972;7.856;2024-03-22T06:55:48;9.30;99.90
5556;DHT22;2801;50.972;7.856;2024-03-22T06:58:14;9.50;99.90
5556;DHT22;2801;50.972;7.856;2024-03-22T07:00:40;9.50;99.90
5556;DHT22;2801;50.972;7.856;2024-03-22T07:03:07;9.50;99.90
5556;DHT22;2801;50.972;7.856;2024-03-22T07:05:33;9.60;99.90
5556;DHT22;2801;50.972;7.856;2024-03-22T07:07:59;9.70;99.90
5556;DHT22;2801;50.972;7.856;2024-03-22T07:10:25;9.70;99.90
5556;DHT22;2801;50.972;7.856;2024-03-22T07:12:56;9.80;99.90
5556;DHT22;2801;50.972;7.856;2024-03-22T07:15:23;9.90;99.90
5556;DHT22;2801;50.972;7.856;2024-03-22T07:17:50;10.00;99.90
5556;DHT22;2801;50.972;7.856;2024-03-22T07:20:17;10.10;99.90
5556;DHT22;2801;50.972;7.856;2024-03-22T07:22:44;10.20;99.90
5556;DHT22;2801;50.972;7.856;2024-03-22T07:25:11;10.30;99.90
5556;DHT22;2801;50.972;7.856;2024-03-22T07:27:37;10.40;99.90
5556;DHT22;2801;50.972;7.856;2024-03-22T07:30:04;10.50;99.90
5556;DHT22;2801;50.972;7.856;2024-03-22T07:32:31;10.60;99.90
5556;DHT22;2801;50.972;7.856;2024-03-22T07:34:58;10.60;99.90
5556;DHT22;2801;50.972;7.856;2024-03-22T07:37:24;10.60;99.90
5556;DHT22;2801;50.972;7.856;2024-03-22T07:39:50;10.60;99.90
5556;DHT22;2801;50.972;7.856;2024-03-22T07:42:17;10.60;99.90
5556;DHT22;2801;50.972;7.856;2024-03-22T07:44:43;10.70;99.90
5556;DHT22;2801;50.972;7.856;2024-03-22T07:47:09;10.70;99.90
5556;DHT22;2801;50.972;7.856;2024-03-22T07:49:35;10.90;99.90
5556;DHT22;2801;50.972;7.856;2024-03-22T07:52:02;11.30;99.90
5556;DHT22;2801;50.972;7.856;2024-03-22T07:54:29;11.40;99.90
5556;DHT22;2801;50.972;7.856;2024-03-22T07:56:56;11.70;99.90
5556;DHT22;2801;50.972;7.856;2024-03-22T07:59:22;11.90;99.90
5556;DHT22;2801;50.972;7.856;2024-03-22T08:01:48;12.10;99.90
5556;DHT22;2801;50.972;7.856;2024-03-22T08:04:15;12.30;99.90
5556;DHT22;2801;50.972;7.856;2024-03-22T08:06:42;12.60;99.90
5556;DHT22;2801;50.972;7.856;2024-03-22T08:09:08;12.90;99.90
5556;DHT22;2801;50.972;7.856;2024-03-22T08:11:34;13.40;99.90
5556;DHT22;2801;50.972;7.856;2024-03-22T08:14:00;13.90;99.90
5556;DHT22;2801;50.972;7.856;2024-03-22T08:16:30;14.60;99.90
5556;DHT22;2801;50.972;7.856;2024-03-22T08:18:56;15.40;99.90
5556;DHT22;2801;50.972;7.856;2024-03-22T08:21:23;16.20;99.90
5556;DHT22;2801;50.972;7.856;2024-03-22T08:23:51;17.00;99.90
5556;DHT22;2801;50.972;7.856;2024-03-22T08:26:18;17.90;99.90
5556;DHT22;2801;50.972;7.856;2024-03-22T08:28:46;18.40;99.90
5556;DHT22;2801;50.972;7.856;2024-03-22T08:31:13;18.70;99.90
5556;DHT22;2801;50.972;7.856;2024-03-22T08:33:40;18.60;99.90
5556;DHT22;2801;50.972;7.856;2024-03-22T08:36:06;18.60;99.90
5556;DHT22;2801;50.972;7.856;2024-03-22T08:38:32;18.90;99.90
5556;DHT22;2801;50.972;7.856;2024-03-22T08:41:00;19.20;99.90
5556;DHT22;2801;50.972;7.856;2024-03-22T08:43:26;19.50;99.90
5556;DHT22;2801;50.972;7.856;2024-03-22T08:45:55;19.80;99.90
5556;DHT22;2801;50.972;7.856;2024-03-22T08:48:21;19.60;99.90
5556;DHT22;2801;50.972;7.856;2024-03-22T08:50:48;19.60;99.90
5556;DHT22;2801;50.972;7.856;2024-03-22T08:53:14;19.80;99.90
5556;DHT22;2801;50.972;7.856;2024-03-22T08:55:47;20.00;99.90
5556;DHT22;2801;50.972;7.856;2024-03-22T08:58:17;20.20;99.90
5556;DHT22;2801;50.972;7.856;2024-03-22T09:00:45;19.90;99.90
5556;DHT22;2801;50.972;7.856;2024-03-22T09:03:11;19.30;99.90
5556;DHT22;2801;50.972;7.856;2024-03-22T09:05:37;18.80;99.90
5556;DHT22;2801;50.972;7.856;2024-03-22T09:08:04;18.50;99.90
5556;DHT22;2801;50.972;7.856;2024-03-22T09:10:30;18.30;99.90
5556;DHT22;2801;50.972;7.856;2024-03-22T09:12:56;18.40;99.90
5556;DHT22;2801;50.972;7.856;2024-03-22T09:15:23;18.40;99.90
5556;DHT22;2801;50.972;7.856;2024-03-22T09:17:52;18.30;99.90
5556;DHT22;2801;50.972;7.856;2024-03-22T09:20:18;18.10;99.90
5556;DHT22;2801;50.972;7.856;2024-03-22T09:22:46;18.00;99.90
5556;DHT22;2801;50.972;7.856;2024-03-22T09:25:12;18.20;99.90
5556;DHT22;2801;50.972;7.856;2024-03-22T09:27:39;18.30;99.90
5556;DHT22;2801;50.972;7.856;2024-03-22T09:30:06;18.30;99.90
5556;DHT22;2801;50.972;7.856;2024-03-22T09:32:32;17.90;99.90
5556;DHT22;2801;50.972;7.856;2024-03-22T09:34:58;17.70;99.90
5556;DHT22;2801;50.972;7.856;2024-03-22T09:37:25;17.40;99.90
5556;DHT22;2801;50.972;7.856;2024-03-22T09:39:52;17.50;99.90
5556;DHT22;2801;50.972;7.856;2024-03-22T09:42:22;17.70;99.90
5556;DHT22;2801;50.972;7.856;2024-03-22T09:44:51;17.70;99.90
5556;DHT22;2801;50.972;7.856;2024-03-22T09:47:18;17.70;99.90
5556;DHT22;2801;50.972;7.856;2024-03-22T09:49:46;17.60;99.90
5556;DHT22;2801;50.972;7.856;2024-03-22T09:52:15;17.30;99.90
5556;DHT22;2801;50.972;7.856;2024-03-22T09:54:45;17.10;99.90
5556;DHT22;2801;50.972;7.856;2024-03-22T09:57:15;16.90;99.90
5556;DHT22;2801;50.972;7.856;2024-03-22T09:59:45;16.50;99.90
5556;DHT22;2801;50.972;7.856;2024-03-22T10:02:12;16.40;99.90
5556;DHT22;2801;50.972;7.856;2024-03-22T10:04:41;16.20;99.90
5556;DHT22;2801;50.972;7.856;2024-03-22T10:07:08;16.00;99.90
5556;DHT22;2801;50.972;7.856;2024-03-22T10:09:36;15.90;99.90
5556;DHT22;2801;50.972;7.856;2024-03-22T10:12:03;15.90;99.90
5556;DHT22;2801;50.972;7.856;2024-03-22T10:14:30;15.90;99.90
5556;DHT22;2801;50.972;7.856;2024-03-22T10:16:57;15.80;99.90
5556;DHT22;2801;50.972;7.856;2024-03-22T10:19:24;15.90;99.90
5556;DHT22;2801;50.972;7.856;2024-03-22T10:22:03;15.80;99.90
5556;DHT22;2801;50.972;7.856;2024-03-22T10:24:30;15.90;99.90
5556;DHT22;2801;50.972;7.856;2024-03-22T10:26:56;15.80;99.90
5556;DHT22;2801;50.972;7.856;2024-03-22T10:29:23;15.80;99.90
5556;DHT22;2801;50.972;7.856;2024-03-22T10:31:54;15.80;99.90
5556;DHT22;2801;50.972;7.856;2024-03-22T10:34:22;15.80;99.90
5556;DHT22;2801;50.972;7.856;2024-03-22T10:36:50;15.80;99.90
5556;DHT22;2801;50.972;7.856;2024-03-22T10:39:18;15.80;99.90
5556;DHT22;2801;50.972;7.856;2024-03-22T10:41:46;15.80;99.90
5556;DHT22;2801;50.972;7.856;2024-03-22T10:44:14;15.80;99.90
5556;DHT22;2801;50.972;7.856;2024-03-22T10:46:52;15.60;99.90
5556;DHT22;2801;50.972;7.856;2024-03-22T10:49:22;15.70;99.90
5556;DHT22;2801;50.972;7.856;2024-03-22T10:51:58;15.70;99.90
5556;DHT22;2801;50.972;7.856;2024-03-22T10:54:33;15.80;99.90
5556;DHT22;2801;50.972;7.856;2024-03-22T10:57:02;15.80;99.90
5556;DHT22;2801;50.972;7.856;2024-03-22T10:59:34;15.80;99.90
5556;DHT22;2801;50.972;7.856;2024-03-22T11:02:04;15.60;99.90
5556;DHT22;2801;50.972;7.856;2024-03-22T11:04:33;15.60;99.90
5556;DHT22;2801;50.972;7.856;2024-03-22T11:07:01;15.60;99.90
5556;DHT22;2801;50.972;7.856;2024-03-22T11:09:29;15.60;99.90
5556;DHT22;2801;50.972;7.856;2024-03-22T11:11:56;15.70;99.90
5556;DHT22;2801;50.972;7.856;2024-03-22T11:14:23;15.60;99.90
5556;DHT22;2801;50.972;7.856;2024-03-22T11:16:50;15.70;99.90
5556;DHT22;2801;50.972;7.856;2024-03-22T11:19:21;15.90;99.90
5556;DHT22;2801;50.972;7.856;2024-03-22T11:21:47;16.00;99.90
5556;DHT22;2801;50.972;7.856;2024-03-22T11:24:13;16.20;99.90
5556;DHT22;2801;50.972;7.856;2024-03-22T11:26:39;16.20;99.90
5556;DHT22;2801;50.972;7.856;2024-03-22T11:29:05;16.40;99.90
5556;DHT22;2801;50.972;7.856;2024-03-22T11:31:32;16.50;99.90
5556;DHT22;2801;50.972;7.856;2024-03-22T11:33:58;16.40;99.90
5556;DHT22;2801;50.972;7.856;2024-03-22T11:36:26;16.30;99.90
5556;DHT22;2801;50.972;7.856;2024-03-22T11:38:52;16.20;99.90
5556;DHT22;2801;50.972;7.856;2024-03-22T11:41:23;16.30;99.90
5556;DHT22;2801;50.972;7.856;2024-03-22T11:43:52;16.30;99.90
5556;DHT22;2801;50.972;7.856;2024-03-22T11:46:20;16.30;99.90
5556;DHT22;2801;50.972;7.856;2024-03-22T11:48:52;16.30;99.90
5556;DHT22;2801;50.972;7.856;2024-03-22T11:51:20;16.30;99.90
5556;DHT22;2801;50.972;7.856;2024-03-22T11:53:53;16.20;99.90
5556;DHT22;2801;50.972;7.856;2024-03-22T11:56:22;16.30;99.90
5556;DHT22;2801;50.972;7.856;2024-03-22T11:58:48;16.40;99.90
5556;DHT22;2801;50.972;7.856;2024-03-22T12:01:15;16.50;99.90
5556;DHT22;2801;50.972;7.856;2024-03-22T12:03:48;16.40;99.90
5556;DHT22;2801;50.972;7.856;2024-03-22T12:06:18;16.40;99.90
5556;DHT22;2801;50.972;7.856;2024-03-22T12:08:44;16.50;99.90
5556;DHT22;2801;50.972;7.856;2024-03-22T12:11:11;16.50;99.90
5556;DHT22;2801;50.972;7.856;2024-03-22T12:13:38;16.50;99.90
5556;DHT22;2801;50.972;7.856;2024-03-22T12:16:05;16.70;99.90
5556;DHT22;2801;50.972;7.856;2024-03-22T12:18:31;16.70;99.90
5556;DHT22;2801;50.972;7.856;2024-03-22T12:20:58;16.90;99.90
5556;DHT22;2801;50.972;7.856;2024-03-22T12:23:24;17.10;99.90
5556;DHT22;2801;50.972;7.856;2024-03-22T12:25:52;17.20;99.90
5556;DHT22;2801;50.972;7.856;2024-03-22T12:28:20;17.30;99.90
5556;DHT22;2801;50.972;7.856;2024-03-22T12:30:49;17.30;99.90
5556;DHT22;2801;50.972;7.856;2024-03-22T12:33:15;17.30;99.90
5556;DHT22;2801;50.972;7.856;2024-03-22T12:35:41;17.30;99.90
5556;DHT22;2801;50.972;7.856;2024-03-22T12:38:08;17.40;99.90
5556;DHT22;2801;50.972;7.856;2024-03-22T12:40:38;17.40;99.90
5556;DHT22;2801;50.972;7.856;2024-03-22T12:43:05;17.30;99.90
5556;DHT22;2801;50.972;7.856;2024-03-22T12:45:32;17.00;99.90
5556;DHT22;2801;50.972;7.856;2024-03-22T12:48:01;16.80;99.90
5556;DHT22;2801;50.972;7.856;2024-03-22T12:50:28;16.80;99.90
5556;DHT22;2801;50.972;7.856;2024-03-22T12:52:54;16.70;99.90
5556;DHT22;2801;50.972;7.856;2024-03-22T12:55:20;16.60;99.90
5556;DHT22;2801;50.972;7.856;2024-03-22T12:57:46;16.70;99.90
5556;DHT22;2801;50.972;7.856;2024-03-22T13:00:13;16.90;99.90
5556;DHT22;2801;50.972;7.856;2024-03-22T13:02:45;17.20;99.90
5556;DHT22;2801;50.972;7.856;2024-03-22T13:05:13;17.40;99.90
5556;DHT22;2801;50.972;7.856;2024-03-22T13:07:41;17.40;99.90
5556;DHT22;2801;50.972;7.856;2024-03-22T13:10:08;17.50;99.90
5556;DHT22;2801;50.972;7.856;2024-03-22T13:12:36;17.60;99.90
5556;DHT22;2801;50.972;7.856;2024-03-22T13:15:03;17.70;99.90
5556;DHT22;2801;50.972;7.856;2024-03-22T13:17:30;17.60;99.90
5556;DHT22;2801;50.972;7.856;2024-03-22T13:19:56;17.60;99.90
5556;DHT22;2801;50.972;7.856;2024-03-22T13:22:22;17.60;99.90
5556;DHT22;2801;50.972;7.856;2024-03-22T13:24:49;17.60;99.90
5556;DHT22;2801;50.972;7.856;2024-03-22T13:27:17;17.60;99.90
5556;DHT22;2801;50.972;7.856;2024-03-22T13:29:44;17.50;99.90
5556;DHT22;2801;50.972;7.856;2024-03-22T13:32:12;17.40;99.90
5556;DHT22;2801;50.972;7.856;2024-03-22T13:34:38;17.20;99.90
5556;DHT22;2801;50.972;7.856;2024-03-22T13:37:05;17.00;99.90
5556;DHT22;2801;50.972;7.856;2024-03-22T13:39:32;16.90;99.90
5556;DHT22;2801;50.972;7.856;2024-03-22T13:41:58;16.80;99.90
5556;DHT22;2801;50.972;7.856;2024-03-22T13:44:24;16.70;99.90
5556;DHT22;2801;50.972;7.856;2024-03-22T13:46:51;16.60;99.90
5556;DHT22;2801;50.972;7.856;2024-03-22T13:49:18;16.60;99.90
5556;DHT22;2801;50.972;7.856;2024-03-22T13:51:47;16.40;99.90
5556;DHT22;2801;50.972;7.856;2024-03-22T13:54:14;16.40;99.90
5556;DHT22;2801;50.972;7.856;2024-03-22T13:56:40;16.40;99.90
5556;DHT22;2801;50.972;7.856;2024-03-22T13:59:07;16.30;99.90
5556;DHT22;2801;50.972;7.856;2024-03-22T14:01:37;16.30;99.90
5556;DHT22;2801;50.972;7.856;2024-03-22T14:04:04;16.20;99.90
5556;DHT22;2801;50.972;7.856;2024-03-22T14:06:32;16.30;99.90
5556;DHT22;2801;50.972;7.856;2024-03-22T14:08:59;16.70;99.90
5556;DHT22;2801;50.972;7.856;2024-03-22T14:11:29;17.10;99.90
5556;DHT22;2801;50.972;7.856;2024-03-22T14:13:58;17.50;99.90
5556;DHT22;2801;50.972;7.856;2024-03-22T14:16:24;17.70;99.90
5556;DHT22;2801;50.972;7.856;2024-03-22T14:18:51;17.50;99.90
5556;DHT22;2801;50.972;7.856;2024-03-22T14:21:18;17.50;99.90
5556;DHT22;2801;50.972;7.856;2024-03-22T14:23:49;17.50;99.90
5556;DHT22;2801;50.972;7.856;2024-03-22T14:26:17;17.50;99.90
5556;DHT22;2801;50.972;7.856;2024-03-22T14:28:44;17.50;99.90
5556;DHT22;2801;50.972;7.856;2024-03-22T14:31:11;17.50;99.90
5556;DHT22;2801;50.972;7.856;2024-03-22T14:33:37;17.40;99.90
5556;DHT22;2801;50.972;7.856;2024-03-22T14:36:05;17.40;99.90
5556;DHT22;2801;50.972;7.856;2024-03-22T14:38:33;17.30;99.90
5556;DHT22;2801;50.972;7.856;2024-03-22T14:40:59;17.20;99.90
5556;DHT22;2801;50.972;7.856;2024-03-22T14:43:26;17.10;99.90
5556;DHT22;2801;50.972;7.856;2024-03-22T14:45:53;17.10;99.90
5556;DHT22;2801;50.972;7.856;2024-03-22T14:48:21;17.20;99.90
5556;DHT22;2801;50.972;7.856;2024-03-22T14:50:48;17.30;99.90
5556;DHT22;2801;50.972;7.856;2024-03-22T14:53:15;17.40;99.90
5556;DHT22;2801;50.972;7.856;2024-03-22T14:55:57;17.40;99.90
5556;DHT22;2801;50.972;7.856;2024-03-22T14:58:28;17.30;99.90
5556;DHT22;2801;50.972;7.856;2024-03-22T15:00:55;17.10;99.90
5556;DHT22;2801;50.972;7.856;2024-03-22T15:03:23;16.80;99.80
5556;DHT22;2801;50.972;7.856;2024-03-22T15:05:54;16.50;99.90
5556;DHT22;2801;50.972;7.856;2024-03-22T15:08:22;16.40;99.90
5556;DHT22;2801;50.972;7.856;2024-03-22T15:10:49;16.30;99.90
5556;DHT22;2801;50.972;7.856;2024-03-22T15:13:17;16.20;99.90
5556;DHT22;2801;50.972;7.856;2024-03-22T15:15:54;16.30;99.90
5556;DHT22;2801;50.972;7.856;2024-03-22T15:18:22;16.30;99.90
5556;DHT22;2801;50.972;7.856;2024-03-22T15:20:50;16.30;99.90
5556;DHT22;2801;50.972;7.856;2024-03-22T15:23:17;16.50;99.90
5556;DHT22;2801;50.972;7.856;2024-03-22T15:25:47;16.60;99.90
5556;DHT22;2801;50.972;7.856;2024-03-22T15:28:14;16.70;99.90
5556;DHT22;2801;50.972;7.856;2024-03-22T15:30:41;16.80;99.90
5556;DHT22;2801;50.972;7.856;2024-03-22T15:33:08;17.00;99.90
5556;DHT22;2801;50.972;7.856;2024-03-22T15:35:35;17.20;99.90
5556;DHT22;2801;50.972;7.856;2024-03-22T15:38:03;17.20;99.90
5556;DHT22;2801;50.972;7.856;2024-03-22T15:40:33;17.30;99.90
5556;DHT22;2801;50.972;7.856;2024-03-22T15:43:00;17.30;99.90
5556;DHT22;2801;50.972;7.856;2024-03-22T15:45:27;17.20;99.90
5556;DHT22;2801;50.972;7.856;2024-03-22T15:47:53;16.90;99.90
5556;DHT22;2801;50.972;7.856;2024-03-22T15:50:19;16.70;99.90
5556;DHT22;2801;50.972;7.856;2024-03-22T15:52:45;16.50;99.90
5556;DHT22;2801;50.972;7.856;2024-03-22T15:55:11;16.30;99.90
5556;DHT22;2801;50.972;7.856;2024-03-22T15:57:37;16.10;99.70
5556;DHT22;2801;50.972;7.856;2024-03-22T16:00:04;16.00;99.90
5556;DHT22;2801;50.972;7.856;2024-03-22T16:02:31;15.80;98.80
5556;DHT22;2801;50.972;7.856;2024-03-22T16:04:57;15.90;99.80
5556;DHT22;2801;50.972;7.856;2024-03-22T16:07:23;15.80;98.90
5556;DHT22;2801;50.972;7.856;2024-03-22T16:09:49;15.70;98.80